Time;durP1;ratioP1;P1;durP2;ratioP2;P2;SDS_P1;SDS_P2;PMS_P1;PMS_P2;Temp;Humidity;BMP_temperature;BMP_pressure;BME280_temperature;BME280_humidity;BME280_pressure;Samples;Min_cycle;Max_cycle;Signal;HPM_P1;HPM_P2
2022/07/25 00:01:27;;;;;;;3.37;2.70;;;;;;;14.78;61.71;99110.23;1366815;85;81747;-72
2022/07/25 00:03:28;;;;;;;6.67;2.58;;;;;;;14.76;61.75;99107.67;1367256;84;21530;-72
2022/07/25 00:05:29;;;;;;;;;;;;;;;14.75;61.86;99108.62;1334750;86;80913;-72
2022/07/25 00:07:30;;;;;;;7.58;2.62;;;;;;;14.76;62.20;99109.00;1362434;85;20230;-72
2022/07/25 00:09:31;;;;;;;;;;;;;;;14.74;62.14;99109.56;1364901;85;21034;-72
2022/07/25 00:11:32;;;;;;;3.47;2.45;;;;;;;14.72;62.19;99108.82;1362395;83;67868;-72
2022/07/25 00:13:33;;;;;;;7.50;2.70;;;;;;;14.70;62.09;99112.52;1365003;85;21752;-72
2022/07/25 00:15:34;;;;;;;3.37;2.60;;;;;;;14.68;62.06;99107.31;1361584;85;80922;-72
2022/07/25 00:17:35;;;;;;;;;;;;;;;14.64;62.16;99105.80;1366715;85;21599;-72
2022/07/25 00:19:37;;;;;;;3.12;2.35;;;;;;;14.61;62.46;99105.97;1363179;85;20521;-73
2022/07/25 00:21:38;;;;;;;9.15;2.55;;;;;;;14.55;62.37;99111.19;1359496;84;81334;-74
2022/07/25 00:23:39;;;;;;;9.63;2.40;;;;;;;14.53;62.54;99105.59;1361026;85;21154;-71
2022/07/25 00:25:40;;;;;;;;;;;;;;;14.50;62.58;99109.28;1361068;84;80682;-73
2022/07/25 00:27:41;;;;;;;2.77;2.52;;;;;;;14.45;62.80;99105.61;1361381;85;20794;-71
2022/07/25 00:29:42;;;;;;;;;;;;;;;14.41;62.75;99101.44;1365292;85;21048;-72
2022/07/25 00:31:43;;;;;;;6.17;2.50;;;;;;;14.37;62.94;99101.25;1361460;84;67777;-72
2022/07/25 00:33:44;;;;;;;;;;;;;;;14.36;62.99;99101.31;1366286;85;21586;-73
2022/07/25 00:35:45;;;;;;;4.60;2.77;;;;;;;14.36;63.22;99097.34;1358749;84;67827;-73
2022/07/25 00:37:46;;;;;;;;;;;;;;;14.33;63.13;99099.73;1367573;85;21039;-73
2022/07/25 00:39:47;;;;;;;8.70;2.75;;;;;;;14.32;63.30;99095.37;1337840;86;67247;-71
2022/07/25 00:41:48;;;;;;;2.85;2.60;;;;;;;14.29;63.29;99096.89;1362838;85;21414;-72
2022/07/25 00:43:49;;;;;;;;;;;;;;;14.25;63.23;99098.02;1368029;85;22192;-71
2022/07/25 00:45:53;;;;;;;6.17;2.60;;;;;;;14.21;63.43;99097.83;1360125;85;68298;-72
2022/07/25 00:47:54;;;;;;;4.55;2.60;;;;;;;14.18;63.48;99094.02;1362419;85;21062;-72
2022/07/25 00:49:55;;;;;;;8.80;2.90;;;;;;;14.12;63.46;99092.15;1363613;84;80911;-72
2022/07/25 00:51:56;;;;;;;3.80;2.80;;;;;;;14.08;63.57;99089.30;1363534;85;21079;-72
2022/07/25 00:53:57;;;;;;;3.50;2.35;;;;;;;14.04;63.59;99089.11;1362235;85;21034;-72
2022/07/25 00:55:58;;;;;;;3.22;2.60;;;;;;;14.03;63.71;99092.70;1359064;85;81578;-72
2022/07/25 00:57:59;;;;;;;4.05;2.90;;;;;;;14.00;63.77;99090.23;1362219;85;21153;-72
2022/07/25 01:00:00;;;;;;;3.45;3.00;;;;;;;14.00;63.84;99087.59;1365688;83;80939;-73
2022/07/25 01:02:02;;;;;;;10.05;2.65;;;;;;;13.98;63.88;99088.63;1372799;84;21128;-72
2022/07/25 01:04:04;;;;;;;;;;;;;;;13.93;63.88;99088.91;1370762;84;21119;-72
2022/07/25 01:06:06;;;;;;;5.97;2.58;;;;;;;13.88;64.13;99080.38;1368215;83;67071;-71
2022/07/25 01:08:08;;;;;;;9.55;2.83;;;;;;;13.86;64.15;99087.09;1366601;84;21054;-72
2022/07/25 01:10:09;;;;;;;4.97;2.62;;;;;;;13.83;64.14;99079.80;1364147;82;81670;-71
2022/07/25 01:12:10;;;;;;;5.92;2.65;;;;;;;13.77;64.17;99079.21;1369145;84;21742;-72
2022/07/25 01:14:11;;;;;;;3.90;2.77;;;;;;;13.74;64.27;99074.10;1368798;83;21129;-72
2022/07/25 01:16:12;;;;;;;;;;;;;;;13.73;64.31;99074.20;1367022;83;80823;-72
2022/07/25 01:18:13;;;;;;;6.47;2.50;;;;;;;13.71;64.51;99073.45;1365979;83;20233;-72
2022/07/25 01:20:15;;;;;;;;;;;;;;;13.67;64.37;99074.09;1370505;82;81821;-70
2022/07/25 01:22:16;;;;;;;5.25;3.12;;;;;;;13.62;64.64;99075.70;1366186;84;20177;-72
2022/07/25 01:24:17;;;;;;;3.47;2.62;;;;;;;13.60;64.69;99072.76;1368414;84;21089;-72
2022/07/25 01:26:18;;;;;;;21.30;3.47;;;;;;;13.59;64.63;99078.51;1369394;84;80797;-72
2022/07/25 01:28:19;;;;;;;3.87;3.05;;;;;;;13.58;64.70;99073.30;1368469;84;21029;-72
2022/07/25 01:30:21;;;;;;;4.12;2.80;;;;;;;13.57;64.76;99072.95;1367177;83;80760;-72
2022/07/25 01:32:22;;;;;;;3.25;2.95;;;;;;;13.56;64.75;99069.91;1368783;84;21019;-73
2022/07/25 01:34:23;;;;;;;3.12;2.67;;;;;;;13.53;64.72;99067.45;1371325;84;21018;-72
2022/07/25 01:36:24;;;;;;;4.35;3.12;;;;;;;13.51;64.78;99071.97;1368682;83;80771;-73
2022/07/25 01:38:25;;;;;;;3.05;2.75;;;;;;;13.49;64.92;99070.73;1370454;84;21110;-72
2022/07/25 01:40:26;;;;;;;7.80;3.08;;;;;;;13.46;64.99;99069.60;1368847;83;80884;-71
2022/07/25 01:42:28;;;;;;;8.10;2.67;;;;;;;13.46;65.02;99072.25;1361605;85;21525;-72
2022/07/25 01:44:29;;;;;;;;;;;;;;;13.47;65.27;99070.44;1371912;83;21078;-70
2022/07/25 01:46:30;;;;;;;7.40;3.10;;;;;;;13.47;65.45;99067.80;1364661;83;68404;-71
2022/07/25 01:48:31;;;;;;;3.95;2.55;;;;;;;13.42;65.27;99066.27;1371876;84;21534;-72
2022/07/25 01:50:32;;;;;;;;;;;;;;;13.41;65.30;99069.01;1370692;83;80762;-72
2022/07/25 01:52:33;;;;;;;3.30;3.00;;;;;;;13.36;65.43;99063.99;1370048;83;20457;-72
2022/07/25 01:54:33;;;;;;;;;;;;;;;13.30;65.45;99061.66;1375935;84;21098;-72
2022/07/25 01:56:34;;;;;;;7.55;2.70;;;;;;;13.27;65.59;99065.81;1370867;84;68447;-72
2022/07/25 01:58:35;;;;;;;13.55;2.75;;;;;;;13.24;65.54;99062.86;1370459;85;21647;-71
2022/07/25 02:00:37;;;;;;;7.95;2.95;;;;;;;13.21;65.57;99060.85;1353416;85;80932;-71
2022/07/25 02:02:40;;;;;;;6.37;2.60;;;;;;;13.20;65.58;99069.76;1354595;85;21037;-72
2022/07/25 02:04:41;;;;;;;5.45;2.75;;;;;;;13.14;65.62;99062.16;1335066;86;21570;-72
2022/07/25 02:06:42;;;;;;;4.83;2.60;;;;;;;13.13;65.64;99068.41;1350708;85;81725;-72
2022/07/25 02:08:43;;;;;;;4.33;2.37;;;;;;;13.13;65.78;99065.28;1357101;85;21023;-71
2022/07/25 02:10:44;;;;;;;3.00;2.70;;;;;;;13.15;65.77;99067.84;1353573;83;81520;-73
2022/07/25 02:12:45;;;;;;;5.12;2.75;;;;;;;13.18;65.86;99074.27;1357096;85;21075;-72
2022/07/25 02:14:46;;;;;;;4.60;2.62;;;;;;;13.19;65.89;99062.75;1361040;85;80894;-71
2022/07/25 02:16:47;;;;;;;4.65;2.52;;;;;;;13.20;65.87;99063.98;1355571;84;21034;-72
2022/07/25 02:18:48;;;;;;;6.20;2.67;;;;;;;13.21;65.95;99065.70;1353682;85;21082;-72
2022/07/25 02:20:49;;;;;;;;;;;;;;;13.23;65.95;99064.28;1356444;85;81810;-71
2022/07/25 02:22:50;;;;;;;2.85;2.65;;;;;;;13.25;66.16;99057.96;1354246;85;20248;-72
2022/07/25 02:24:51;;;;;;;3.83;3.02;;;;;;;13.26;66.08;99062.33;1351310;85;81401;-71
2022/07/25 02:26:52;;;;;;;;;;;;;;;13.28;66.09;99060.91;1359032;85;21083;-72
2022/07/25 02:28:53;;;;;;;2.98;2.67;;;;;;;13.30;66.26;99061.66;1356162;85;21124;-71
2022/07/25 02:30:54;;;;;;;;;;;;;;;13.32;66.20;99062.89;1362677;83;81863;-72
2022/07/25 02:32:55;;;;;;;7.28;3.30;;;;;;;13.32;66.31;99055.81;1360963;84;21039;-71
2022/07/25 02:34:57;;;;;;;;;;;;;;;13.31;66.16;99059.40;1334314;86;81009;-71
2022/07/25 02:36:58;;;;;;;2.85;2.65;;;;;;;13.33;66.29;99056.66;1353544;85;20158;-72
2022/07/25 02:38:59;;;;;;;;;;;;;;;13.29;66.16;99052.88;1356792;85;22391;-72
2022/07/25 02:41:00;;;;;;;4.15;2.72;;;;;;;13.25;66.23;99059.73;1354667;85;67375;-71
2022/07/25 02:43:01;;;;;;;5.72;2.83;;;;;;;13.17;66.16;99058.88;1354282;85;21027;-72
2022/07/25 02:45:02;;;;;;;3.12;2.80;;;;;;;13.13;66.16;99060.47;1354076;85;80981;-72
2022/07/25 02:47:03;;;;;;;4.20;3.65;;;;;;;13.11;66.25;99058.77;1358137;85;21725;-71
2022/07/25 02:49:06;;;;;;;;;;;;;;;13.09;66.34;99061.11;1357099;85;21019;-72
2022/07/25 02:51:07;;;;;;;5.78;3.10;;;;;;;13.04;66.46;99055.22;1352221;85;67978;-71
2022/07/25 02:53:07;;;;;;;;;;;;;;;13.01;66.50;99056.24;1359069;85;21123;-71
2022/07/25 02:55:10;;;;;;;4.20;3.20;;;;;;;13.01;66.67;99058.89;1353327;85;67930;-72
2022/07/25 02:57:11;;;;;;;7.17;3.20;;;;;;;12.99;66.58;99060.78;1355723;85;21043;-71
2022/07/25 02:59:12;;;;;;;6.67;4.03;;;;;;;12.98;66.63;99061.71;1357413;85;21666;-71
2022/07/25 03:01:13;;;;;;;4.00;3.30;;;;;;;12.96;66.69;99054.35;1338090;86;81568;-74
2022/07/25 03:03:14;;;;;;;5.42;3.10;;;;;;;12.95;66.69;99061.41;1356070;85;21224;-72
2022/07/25 03:05:16;;;;;;;4.87;2.87;;;;;;;12.93;66.75;99052.73;1353526;83;81713;-71
2022/07/25 03:07:17;;;;;;;4.72;3.27;;;;;;;12.92;66.82;99057.63;1355108;85;21058;-72
2022/07/25 03:09:18;;;;;;;;;;;;;;;12.92;66.91;99056.78;1359333;85;21036;-72
2022/07/25 03:11:19;;;;;;;5.40;3.10;;;;;;;12.91;67.07;99056.39;1354112;85;67173;-71
2022/07/25 03:13:20;;;;;;;5.45;3.20;;;;;;;12.91;67.01;99059.04;1354757;85;21114;-72
2022/07/25 03:15:21;;;;;;;;;;;;;;;12.92;67.10;99056.78;1343033;86;81594;-72
2022/07/25 03:17:22;;;;;;;15.95;3.37;;;;;;;12.92;67.19;99053.66;1356716;84;20169;-71
2022/07/25 03:19:22;;;;;;;;;;;;;;;12.93;67.15;99055.82;1358294;85;21095;-71
2022/07/25 03:21:23;;;;;;;7.25;2.67;;;;;;;12.93;67.22;99058.47;1355569;84;69721;-72
2022/07/25 03:23:26;;;;;;;8.40;3.30;;;;;;;12.90;67.19;99062.62;1357729;85;21126;-71
2022/07/25 03:25:27;;;;;;;4.03;3.50;;;;;;;12.90;67.25;99069.23;1352731;84;81906;-71
2022/07/25 03:27:28;;;;;;;;;;;;;;;12.89;67.25;99065.74;1357004;85;21012;-71
2022/07/25 03:29:29;;;;;;;4.97;3.33;;;;;;;12.87;67.40;99065.44;1356933;85;20163;-72
2022/07/25 03:31:29;;;;;;;;;;;;;;;12.88;67.47;99064.52;1355665;85;80785;-71
2022/07/25 03:33:31;;;;;;;3.95;3.12;;;;;;;12.92;67.67;99070.02;1355554;85;21182;-71
2022/07/25 03:35:32;;;;;;;3.27;3.02;;;;;;;12.93;67.53;99075.22;1355009;85;81458;-72
2022/07/25 03:37:33;;;;;;;7.60;3.00;;;;;;;12.97;67.50;99072.39;1354389;85;21036;-72
2022/07/25 03:39:34;;;;;;;7.78;3.05;;;;;;;12.82;67.49;99046.33;1354738;85;21019;-72
2022/07/25 03:41:35;;;;;;;3.52;3.20;;;;;;;12.97;67.49;99073.23;1349760;85;81490;-71
2022/07/25 03:43:37;;;;;;;3.02;2.80;;;;;;;12.98;67.49;99073.62;1352468;85;21054;-71
2022/07/25 03:45:38;;;;;;;5.95;3.08;;;;;;;13.00;67.61;99073.08;1355501;84;80826;-72
2022/07/25 03:47:38;;;;;;;;;;;;;;;13.03;67.67;99073.34;1361210;85;21082;-72
2022/07/25 03:49:39;;;;;;;11.75;3.00;;;;;;;13.06;67.84;99076.69;1353242;85;20190;-72
2022/07/25 03:51:40;;;;;;;;;;;;;;;13.08;67.80;99079.24;1357881;85;80712;-72
2022/07/25 03:56:00;;;;;;;5.33;2.92;;;;;;;13.12;67.90;99076.80;1352308;83;81630;-72
2022/07/25 03:58:01;;;;;;;4.47;3.10;;;;;;;13.18;68.00;99077.79;1354361;85;21018;-71
2022/07/25 04:00:03;;;;;;;;;;;;;;;13.21;67.97;99070.12;1355390;85;80907;-71
2022/07/25 04:02:04;;;;;;;8.03;3.40;;;;;;;13.24;68.12;99068.16;1353625;85;20222;-72
2022/07/25 04:04:05;;;;;;;3.55;3.02;;;;;;;13.26;68.06;99062.77;1354574;85;21063;-71
2022/07/25 04:06:06;;;;;;;5.20;3.37;;;;;;;13.32;68.13;99061.56;1351828;85;82044;-71
2022/07/25 04:08:07;;;;;;;11.05;3.70;;;;;;;13.39;68.17;99064.30;1356086;85;21634;-72
2022/07/25 04:10:10;;;;;;;6.53;3.17;;;;;;;13.44;68.11;99064.41;1327422;87;80965;-72
2022/07/25 04:12:11;;;;;;;14.78;3.30;;;;;;;13.48;68.09;99061.08;1355581;85;21098;-71
2022/07/25 04:14:13;;;;;;;7.65;3.35;;;;;;;13.52;68.10;99063.09;1355208;85;21083;-71
2022/07/25 04:16:14;;;;;;;7.20;2.90;;;;;;;13.56;68.19;99062.80;1353109;83;81239;-71
2022/07/25 04:18:15;;;;;;;6.20;3.10;;;;;;;13.62;68.19;99064.23;1357699;85;21063;-72
2022/07/25 04:20:16;;;;;;;;;;;;;;;13.68;68.18;99053.30;1354159;84;82216;-73
2022/07/25 04:22:17;;;;;;;11.23;3.20;;;;;;;13.72;68.24;99048.64;1356530;85;20208;-72
2022/07/25 04:24:18;;;;;;;17.62;3.75;;;;;;;13.74;68.11;99044.96;1355361;85;21358;-72
2022/07/25 04:26:19;;;;;;;9.40;3.17;;;;;;;13.78;68.19;99042.51;1354225;85;80915;-71
2022/07/25 04:28:21;;;;;;;4.47;3.58;;;;;;;13.88;68.24;99045.94;1353788;85;21542;-72
2022/07/25 04:30:22;;;;;;;8.03;3.30;;;;;;;13.94;68.29;99042.45;1353418;85;80708;-72
2022/07/25 04:32:23;;;;;;;;;;;;;;;14.00;68.29;99043.86;1361395;85;21729;-73
2022/07/25 04:34:24;;;;;;;10.32;3.00;;;;;;;14.04;68.38;99041.41;1353736;85;20307;-72
2022/07/25 04:36:25;;;;;;;;;;;;;;;14.10;68.39;99036.20;1356957;83;82252;-71
2022/07/25 04:38:26;;;;;;;;;;;;;;;14.19;68.50;99042.27;1356001;84;20165;-71
2022/07/25 04:40:27;;;;;;;8.53;3.75;;;;;;;14.26;68.47;99042.70;1352134;85;68193;-71
2022/07/25 04:42:28;;;;;;;16.12;3.70;;;;;;;14.32;68.42;99039.69;1355443;85;21103;-72
2022/07/25 04:44:29;;;;;;;22.42;3.98;;;;;;;14.35;68.27;99031.53;1358218;85;21003;-72
2022/07/25 04:46:30;;;;;;;6.62;3.55;;;;;;;14.46;68.13;99037.00;1352355;85;82070;-71
2022/07/25 04:48:31;;;;;;;7.30;3.72;;;;;;;14.56;68.20;99039.08;1355356;85;21046;-72
2022/07/25 04:50:32;;;;;;;8.88;4.17;;;;;;;14.64;68.05;99040.80;1354215;84;81983;-72
2022/07/25 04:52:32;;;;;;;;;;;;;;;14.71;68.11;99027.52;1355643;85;21268;-72
2022/07/25 04:54:34;;;;;;;13.18;4.20;;;;;;;14.80;68.11;99033.56;1352801;85;20583;-72
2022/07/25 04:56:35;;;;;;;9.30;3.85;;;;;;;14.90;67.89;99031.65;1353079;85;80961;-72
2022/07/25 04:58:36;;;;;;;18.17;4.17;;;;;;;14.99;67.87;99031.02;1351493;85;21059;-72
2022/07/25 05:00:37;;;;;;;22.27;4.17;;;;;;;15.09;67.77;99028.16;1352270;84;80945;-72
2022/07/25 05:02:38;;;;;;;;;;;;;;;15.20;67.71;99035.88;1357319;85;21673;-72
2022/07/25 05:04:39;;;;;;;50.73;5.33;;;;;;;15.26;67.75;99033.66;1353718;86;20147;-71
2022/07/25 05:06:39;;;;;;;;;;;;;;;15.34;67.74;99035.82;1354334;84;81610;-71
2022/07/25 05:08:40;;;;;;;57.95;5.08;;;;;;;15.42;67.72;99035.28;1352234;84;20551;-71
2022/07/25 05:10:42;;;;;;;39.45;4.90;;;;;;;15.49;67.66;99040.09;1353807;85;81155;-71
2022/07/25 05:12:43;;;;;;;46.85;5.70;;;;;;;15.59;67.61;99039.45;1353652;85;21562;-72
2022/07/25 05:14:44;;;;;;;43.45;4.95;;;;;;;15.66;67.45;99034.95;1355333;85;21128;-72
2022/07/25 05:16:44;;;;;;;;;;;;;;;15.74;67.47;99034.90;1359131;84;81519;-71
2022/07/25 05:18:45;;;;;;;17.05;4.67;;;;;;;15.81;67.56;99030.89;1353883;85;20165;-71
2022/07/25 05:20:46;;;;;;;;;;;;;;;15.87;67.39;99024.30;1354247;83;82129;-72
2022/07/25 05:22:47;;;;;;;40.73;5.50;;;;;;;15.93;67.36;99018.57;1354145;85;20166;-72
2022/07/25 05:24:48;;;;;;;14.20;4.37;;;;;;;15.99;67.41;99010.15;1354381;85;81065;-72
2022/07/25 05:26:49;;;;;;;19.45;4.95;;;;;;;16.06;67.32;99018.09;1351408;85;21051;-71
2022/07/25 05:28:50;;;;;;;;;;;;;;;16.14;67.17;99016.20;1355182;85;21043;-72
2022/07/25 05:30:51;;;;;;;26.10;5.08;;;;;;;16.20;67.18;99014.45;1353789;85;67353;-72
2022/07/25 05:32:52;;;;;;;33.60;5.40;;;;;;;16.28;67.17;99023.20;1357729;85;21085;-72
2022/07/25 05:34:52;;;;;;;;;;;;;;;16.36;67.13;99017.34;1350696;85;81116;-72
2022/07/25 05:36:53;;;;;;;15.23;5.17;;;;;;;16.44;67.16;99018.48;1356226;84;20169;-72
2022/07/25 05:38:54;;;;;;;;;;;;;;;16.54;67.13;99012.52;1354357;85;21122;-72
2022/07/25 05:40:55;;;;;;;18.00;5.90;;;;;;;16.62;66.91;99013.64;1339597;86;68022;-72
2022/07/25 05:42:56;;;;;;;;;;;;;;;16.68;66.77;99004.36;1357269;85;21031;-71
2022/07/25 05:44:57;;;;;;;22.40;6.65;;;;;;;16.74;66.79;99011.91;1353029;85;67448;-71
2022/07/25 05:46:58;;;;;;;;;;;;;;;16.80;66.79;99003.95;1357595;85;21039;-71
2022/07/25 05:48:58;;;;;;;14.25;7.20;;;;;;;16.88;66.64;99006.03;1355473;85;20209;-71
2022/07/25 05:50:59;;;;;;;;;;;;;;;16.95;66.45;99006.84;1354346;85;82026;-71
2022/07/25 05:53:00;;;;;;;13.62;5.80;;;;;;;17.05;66.42;99006.17;1355199;85;20164;-71
2022/07/25 05:55:01;;;;;;;27.45;6.50;;;;;;;17.12;66.43;99006.06;1330406;87;81383;-71
2022/07/25 05:57:02;;;;;;;;;;;;;;;17.21;66.46;99008.52;1357683;85;21126;-71
2022/07/25 05:59:03;;;;;;;39.53;6.55;;;;;;;17.27;66.20;99002.25;1354469;85;20888;-71
2022/07/25 06:01:05;;;;;;;31.42;7.58;;;;;;;17.35;66.17;99008.34;1361232;84;81905;-71
2022/07/25 06:03:07;;;;;;;38.60;6.22;;;;;;;17.42;66.20;99003.37;1366475;85;21060;-71
2022/07/25 06:05:08;;;;;;;68.12;6.72;;;;;;;17.51;66.09;99012.88;1364737;85;81891;-71
2022/07/25 06:07:09;;;;;;;38.10;6.90;;;;;;;17.60;66.01;99006.44;1365005;85;21677;-71
2022/07/25 06:09:10;;;;;;;31.37;6.33;;;;;;;17.67;65.90;99002.36;1368271;84;21012;-71
2022/07/25 06:11:11;;;;;;;36.73;6.70;;;;;;;17.76;65.89;99000.28;1361955;85;80974;-71
2022/07/25 06:13:12;;;;;;;40.92;5.75;;;;;;;17.87;65.83;99004.79;1365244;84;21298;-71
2022/07/25 06:15:13;;;;;;;44.90;6.00;;;;;;;17.98;65.68;99001.32;1366088;84;81912;-71
2022/07/25 06:17:14;;;;;;;26.60;6.60;;;;;;;18.05;65.67;98995.86;1367158;84;21005;-72
2022/07/25 06:19:15;;;;;;;20.95;5.78;;;;;;;18.18;65.86;98996.59;1364220;85;21023;-72
2022/07/25 06:21:16;;;;;;;33.02;6.45;;;;;;;18.18;65.86;98996.59;1362991;84;81784;-71
2022/07/25 06:23:17;;;;;;;21.55;5.58;;;;;;;18.32;65.33;99005.33;1365613;85;22160;-71
2022/07/25 06:25:18;;;;;;;20.60;5.12;;;;;;;18.38;64.97;99010.16;1363771;85;81213;-72
2022/07/25 06:27:19;;;;;;;19.60;5.50;;;;;;;18.45;64.90;99006.02;1366867;84;21733;-72
2022/07/25 06:29:20;;;;;;;14.18;5.28;;;;;;;18.52;64.71;98999.20;1367371;84;21027;-72
2022/07/25 06:31:21;;;;;;;22.70;4.62;;;;;;;18.58;64.53;98997.02;1332420;85;81699;-73
2022/07/25 06:33:22;;;;;;;19.90;4.87;;;;;;;18.64;64.38;99002.72;1333594;87;21130;-71
2022/07/25 06:35:23;;;;;;;62.15;6.70;;;;;;;18.71;64.40;98999.90;1358902;85;81602;-71
2022/07/25 06:37:25;;;;;;;33.48;4.75;;;;;;;18.82;64.50;98996.36;1358680;85;21043;-71
2022/07/25 06:39:27;;;;;;;43.40;5.95;;;;;;;18.91;64.30;98993.44;1367053;84;21564;-72
2022/07/25 06:41:28;;;;;;;42.13;5.28;;;;;;;18.97;64.09;98983.59;1365233;84;81583;-72
2022/07/25 06:43:29;;;;;;;35.33;4.80;;;;;;;19.04;64.08;98985.27;1368400;84;21027;-73
2022/07/25 06:45:30;;;;;;;30.37;5.15;;;;;;;19.12;64.23;98984.15;1369978;84;81973;-72
2022/07/25 06:47:31;;;;;;;21.45;4.65;;;;;;;19.25;64.23;98981.28;1367031;84;21120;-73
2022/07/25 06:49:32;;;;;;;14.07;4.37;;;;;;;19.35;64.24;98972.00;1366660;85;21020;-73
2022/07/25 06:51:33;;;;;;;17.23;4.65;;;;;;;19.45;64.07;98970.22;1365055;84;81000;-73
2022/07/25 06:53:37;;;;;;;17.30;4.80;;;;;;;19.53;63.73;98966.41;1368392;84;21036;-73
2022/07/25 06:55:38;;;;;;;16.35;4.45;;;;;;;19.59;63.70;98963.69;1367989;84;82226;-72
2022/07/25 06:57:39;;;;;;;11.78;4.47;;;;;;;19.67;63.74;98952.34;1368683;83;21018;-72
2022/07/25 06:59:40;;;;;;;13.70;4.35;;;;;;;19.77;63.73;98947.91;1363502;85;21042;-72
2022/07/25 07:01:41;;;;;;;14.13;5.75;;;;;;;19.85;63.43;98946.75;1368506;84;81709;-72
2022/07/25 07:03:43;;;;;;;17.73;4.47;;;;;;;19.99;63.47;98947.38;1369414;83;21065;-72
2022/07/25 07:05:43;;;;;;;27.95;5.20;;;;;;;20.09;63.41;98946.95;1370661;84;82111;-72
2022/07/25 07:07:44;;;;;;;16.07;4.33;;;;;;;20.20;63.14;98949.51;1368858;84;21569;-72
2022/07/25 07:09:45;;;;;;;17.45;4.65;;;;;;;20.30;62.94;98948.67;1370262;84;21045;-73
2022/07/25 07:11:46;;;;;;;17.77;4.25;;;;;;;20.38;62.87;98941.67;1367310;84;80719;-72
2022/07/25 07:13:47;;;;;;;22.50;5.65;;;;;;;20.51;62.77;98938.72;1369095;84;21085;-73
2022/07/25 07:15:49;;;;;;;12.58;4.60;;;;;;;20.64;62.67;98936.27;1368852;82;81784;-72
2022/07/25 07:17:50;;;;;;;13.88;4.45;;;;;;;20.71;62.46;98931.61;1339715;85;21082;-72
2022/07/25 07:19:51;;;;;;;17.07;4.90;;;;;;;20.77;62.18;98927.52;1338541;86;81904;-72
2022/07/25 07:21:52;;;;;;;13.22;4.75;;;;;;;20.85;62.05;98933.02;1339884;85;21087;-72
2022/07/25 07:23:53;;;;;;;19.35;5.47;;;;;;;20.96;61.77;98934.68;1356109;85;21043;-72
2022/07/25 07:25:54;;;;;;;17.57;5.75;;;;;;;21.04;61.75;98931.30;1353561;85;80957;-72
2022/07/25 07:27:55;;;;;;;16.15;6.55;;;;;;;21.13;61.42;98925.10;1357271;85;21625;-72
2022/07/25 07:29:56;;;;;;;19.45;7.22;;;;;;;21.20;61.33;98928.89;1354397;85;81189;-72
2022/07/25 07:31:57;;;;;;;14.63;6.70;;;;;;;21.31;61.16;98923.88;1354459;85;21091;-72
2022/07/25 07:33:58;;;;;;;18.57;6.58;;;;;;;21.33;61.15;98929.92;1356551;85;21287;-73
2022/07/25 07:36:00;;;;;;;17.07;7.67;;;;;;;21.38;61.21;98933.53;1354487;85;80963;-72
2022/07/25 07:38:01;;;;;;;13.75;7.28;;;;;;;21.46;61.00;98930.98;1356781;85;21767;-73
2022/07/25 07:40:03;;;;;;;22.40;8.43;;;;;;;21.50;60.95;98928.83;1353468;85;81136;-72
2022/07/25 07:42:04;;;;;;;16.65;8.38;;;;;;;21.57;60.85;98930.83;1355685;85;21062;-73
2022/07/25 07:44:05;;;;;;;12.82;6.62;;;;;;;21.64;60.67;98935.59;1359145;85;21034;-72
2022/07/25 07:46:06;;;;;;;10.28;6.53;;;;;;;21.62;60.38;98932.23;1354129;85;80922;-72
2022/07/25 07:48:07;;;;;;;18.92;4.97;;;;;;;21.63;60.19;98928.53;1357408;85;21055;-72
2022/07/25 07:50:10;;;;;;;16.05;5.15;;;;;;;21.71;60.39;98931.33;1354716;85;81764;-73
2022/07/25 07:52:11;;;;;;;7.15;3.87;;;;;;;21.86;60.23;98931.23;1358834;85;21692;-72
2022/07/25 07:56:31;;;;;;;6.47;4.03;;;;;;;22.11;59.75;98928.35;1353312;85;81079;-71
2022/07/25 07:58:33;;;;;;;10.08;3.40;;;;;;;22.21;59.31;98922.06;1354565;85;21015;-71
2022/07/25 08:00:38;;;;;;;5.75;3.05;;;;;;;22.26;59.17;98923.81;1350856;85;80918;-72
2022/07/25 08:02:45;;;;;;;6.92;3.58;;;;;;;22.41;59.10;98922.84;1333770;87;21165;-72
2022/07/25 08:04:46;;;;;;;12.50;3.52;;;;;;;22.58;59.04;98929.22;1335650;87;21024;-72
2022/07/25 08:06:47;;;;;;;20.80;3.42;;;;;;;22.65;58.69;98920.05;1337189;87;81676;-71
2022/07/25 08:08:48;;;;;;;9.43;3.60;;;;;;;22.69;58.78;98926.30;1336856;84;21111;-72
2022/07/25 08:10:49;;;;;;;14.15;4.08;;;;;;;22.69;58.59;98920.93;1334308;87;81526;-71
2022/07/25 08:12:52;;;;;;;3.50;3.10;;;;;;;22.74;58.34;98919.98;1336028;86;21068;-71
2022/07/25 08:14:53;;;;;;;9.40;3.20;;;;;;;22.78;58.26;98922.70;1334548;87;81684;-71
2022/07/25 08:16:56;;;;;;;2.37;2.17;;;;;;;22.86;58.06;98917.92;1335075;87;21124;-72
2022/07/25 08:18:57;;;;;;;9.13;2.77;;;;;;;23.02;57.79;98916.36;1355844;85;21576;-71
2022/07/25 08:21:00;;;;;;;11.63;2.62;;;;;;;23.18;57.27;98915.19;1353624;85;82074;-72
2022/07/25 08:23:02;;;;;;;8.13;2.33;;;;;;;23.27;57.26;98922.32;1356513;85;21627;-71
2022/07/25 08:25:04;;;;;;;13.22;3.37;;;;;;;23.31;57.18;98921.48;1354761;83;81694;-71
2022/07/25 08:27:05;;;;;;;9.25;2.87;;;;;;;23.28;57.06;98916.42;1356714;85;21034;-71
2022/07/25 08:29:05;;;;;;;11.12;3.17;;;;;;;23.27;56.78;98919.63;1355215;85;21055;-71
2022/07/25 08:31:07;;;;;;;8.53;2.50;;;;;;;23.25;56.54;98914.06;1353898;85;80750;-72
2022/07/25 08:33:12;;;;;;;13.62;2.50;;;;;;;23.26;56.51;98919.28;1357077;85;21494;-72
2022/07/25 08:35:13;;;;;;;2.25;2.05;;;;;;;23.32;56.66;98918.28;1353316;85;81566;-71
2022/07/25 08:37:14;;;;;;;5.15;2.20;;;;;;;23.39;56.34;98914.81;1357081;85;20992;-72
2022/07/25 08:39:15;;;;;;;3.87;2.10;;;;;;;23.61;56.04;98910.75;1355779;85;21042;-72
2022/07/25 08:41:16;;;;;;;5.30;1.90;;;;;;;23.77;55.82;98910.02;1353605;83;81503;-73
2022/07/25 08:43:17;;;;;;;6.03;2.00;;;;;;;23.92;55.82;98906.22;1340229;86;21039;-73
2022/07/25 08:45:19;;;;;;;2.20;1.80;;;;;;;24.11;55.29;98906.47;1354882;85;80891;-73
2022/07/25 08:47:20;;;;;;;2.87;1.70;;;;;;;24.22;54.89;98903.98;1357534;85;20936;-73
2022/07/25 08:49:22;;;;;;;3.92;1.87;;;;;;;24.29;54.91;98895.58;1357033;85;20976;-73
2022/07/25 08:51:23;;;;;;;15.53;2.90;;;;;;;24.43;54.62;98895.45;1354547;83;81480;-73
2022/07/25 08:53:25;;;;;;;5.33;1.90;;;;;;;24.54;54.55;98899.68;1331580;86;21044;-73
2022/07/25 08:55:27;;;;;;;4.03;1.75;;;;;;;24.64;54.42;98894.17;1351780;85;80709;-73
2022/07/25 08:57:28;;;;;;;4.20;1.70;;;;;;;24.76;53.99;98896.05;1335471;87;21920;-73
2022/07/25 08:59:32;;;;;;;3.65;1.72;;;;;;;24.79;53.49;98890.31;1354234;85;20963;-73
2022/07/25 09:01:33;;;;;;;8.53;1.82;;;;;;;24.85;54.16;98891.49;1357132;84;81984;-72
2022/07/25 09:03:35;;;;;;;4.70;1.55;;;;;;;24.96;53.13;98890.66;1360935;84;21119;-73
2022/07/25 09:05:38;;;;;;;2.55;1.45;;;;;;;25.06;53.26;98897.72;1358954;83;81597;-72
2022/07/25 09:07:40;;;;;;;13.08;2.10;;;;;;;25.18;53.25;98891.48;1362258;85;21043;-73
2022/07/25 09:09:43;;;;;;;10.25;2.15;;;;;;;25.30;52.74;98890.13;1359301;85;21007;-72
2022/07/25 09:11:44;;;;;;;2.67;1.80;;;;;;;25.38;52.84;98887.93;1360190;85;82175;-72
2022/07/25 09:13:49;;;;;;;7.40;2.00;;;;;;;25.48;52.51;98888.60;1358159;85;21078;-72
2022/07/25 09:15:58;;;;;;;13.83;1.98;;;;;;;25.52;51.93;98885.89;1358751;85;80805;-72
2022/07/25 09:18:02;;;;;;;10.05;2.33;;;;;;;25.54;51.33;98890.59;1338505;86;20999;-72
2022/07/25 09:20:07;;;;;;;5.83;2.00;;;;;;;25.54;50.94;98887.89;1344509;86;82031;-73
2022/07/25 09:22:07;;;;;;;7.25;1.57;;;;;;;25.64;51.43;98887.70;1361949;85;21019;-73
2022/07/25 09:24:10;;;;;;;3.33;1.70;;;;;;;25.61;51.56;98878.09;1360253;84;21102;-76
2022/07/25 09:26:13;;;;;;;3.80;1.90;;;;;;;25.66;51.33;98877.06;1360157;85;80913;-72
2022/07/25 09:28:16;;;;;;;7.58;1.70;;;;;;;25.73;50.94;98881.27;1361065;85;21084;-72
2022/07/25 09:30:18;;;;;;;3.77;1.55;;;;;;;25.78;50.88;98873.98;1357944;83;81626;-72
2022/07/25 09:32:21;;;;;;;6.58;1.50;;;;;;;25.85;50.64;98876.34;1359770;85;21093;-72
2022/07/25 09:34:33;;;;;;;5.80;1.50;;;;;;;25.87;50.40;98870.77;1361195;85;21058;-71
2022/07/25 09:36:34;;;;;;;3.00;1.75;;;;;;;25.84;49.26;98864.68;1349337;85;81537;-72
2022/07/25 09:38:35;;;;;;;3.22;1.70;;;;;;;25.87;50.09;98868.89;1361120;85;21086;-72
2022/07/25 09:40:36;;;;;;;4.03;1.72;;;;;;;26.02;50.06;98870.88;1359865;85;80686;-72
2022/07/25 09:42:37;;;;;;;4.28;1.50;;;;;;;26.06;48.99;98870.85;1358451;85;21027;-73